Airport View

Enter AWOS ICAO identifier for current METAR.

ex. KFNL

KOCF 280105Z AUTO 11004KT 10SM BKN008 23/23 A2997 RMK AO2 $

28 Sep 2020 01:25

Frequency: 128.125

Phone: 352-237-8525

Other Area AWOS: KX60 - KVVG - KINF - KCGC

TAF KLEE 272324Z 2800/2824 29008KT P6SM VCTS SCT030CB OVC060 TEMPO 2800/2801 VRB18G28KT 2SM TSRA BKN025CB FM280200 07004KT P6SM SCT060 BKN120 FM281500 18007KT P6SM SCT035 BKN250 FM281800 26005KT P6SM VCTS SCT030CB BKN060